Time;durP1;ratioP1;P1;durP2;ratioP2;P2;SDS_P1;SDS_P2;PMS_P1;PMS_P2;Temp;Humidity;BMP_temperature;BMP_pressure;BME280_temperature;BME280_humidity;BME280_pressure;Samples;Min_cycle;Max_cycle;Signal;HPM_P1;HPM_P2
2023/07/02 00:00:47;;;;;;;;;;;;;;;;;;5070238;28;19924;-68
2023/07/02 00:03:14;;;;;;;;;;;;;;;;;;5071134;28;20025;-67
2023/07/02 00:05:41;;;;;;;;;;;;;;;;;;5072612;28;20013;-68
2023/07/02 00:08:08;;;;;;;;;;;;;;;;;;5071624;28;19968;-67
2023/07/02 00:10:35;;;;;;;;;;;;;;;;;;5072102;28;19931;-67
2023/07/02 00:13:04;;;;;;;;;;;;;;;;;;5069329;28;21350;-68
2023/07/02 00:15:31;;;;;;;;;;;;;;;;;;5070615;28;20434;-68
2023/07/02 00:17:58;;;;;;;;;;;;;;;;;;5070920;28;19924;-67
2023/07/02 00:20:25;;;;;;;;;;;;;;;;;;5072720;28;20041;-67
2023/07/02 00:22:54;;;;;;;;;;;;;;;;;;5079953;28;19959;-67
2023/07/02 00:25:21;;;;;;;;;;;;;;;;;;5072419;28;20020;-67
2023/07/02 00:27:48;;;;;;;;;;;;;;;;;;5072467;28;19999;-67
2023/07/02 00:30:15;;;;;;;;;;;;;;;;;;5069665;28;19935;-67
2023/07/02 00:32:42;;;;;;;;;;;;;;;;;;5070022;28;20019;-67
2023/07/02 00:35:09;;;;;;;;;;;;;;;;;;5072126;28;20019;-68
2023/07/02 00:37:37;;;;;;;;;;;;;;;;;;5071798;28;20035;-68
2023/07/02 00:40:03;;;;;;;;;;;;;;;;;;5072138;28;19924;-67
2023/07/02 00:42:30;;;;;;;;;;;;;;;;;;5070154;28;19956;-68
2023/07/02 00:45:02;;;;;;;;;;;;;;;;;;5068286;28;20379;-68
2023/07/02 00:47:29;;;;;;;;;;;;;;;;;;5070735;28;19924;-68
2023/07/02 00:49:56;;;;;;;;;;;;;;;;;;5071730;28;20007;-68
2023/07/02 00:52:25;;;;;;;;;;;;;;;;;;5069480;28;20011;-68
2023/07/02 00:54:52;;;;;;;;;;;;;;;;;;5072276;28;19932;-68
2023/07/02 00:57:22;;;;;;;;;;;;;;;;;;5092146;28;19930;-68
2023/07/02 00:59:52;;;;;;;;;;;;;;;;;;5070656;28;20015;-67
2023/07/02 01:02:19;;;;;;;;;;;;;;;;;;5070977;28;20391;-68
2023/07/02 01:04:49;;;;;;;;;;;;;;;;;;5069472;28;20011;-68
2023/07/02 01:07:16;;;;;;;;;;;;;;;;;;5071611;28;19935;-68
2023/07/02 01:09:43;;;;;;;;;;;;;;;;;;5070603;28;19971;-68
2023/07/02 01:12:10;;;;;;;;;;;;;;;;;;5071021;28;19967;-68
2023/07/02 01:14:37;;;;;;;;;;;;;;;;;;5069259;28;20460;-68
2023/07/02 01:17:04;;;;;;;;;;;;;;;;;;5072281;28;20342;-68
2023/07/02 01:19:33;;;;;;;;;;;;;;;;;;5070903;28;19932;-68
2023/07/02 01:22:00;;;;;;;;;;;;;;;;;;5071167;28;19925;-67
2023/07/02 01:24:27;;;;;;;;;;;;;;;;;;5071133;28;20480;-68
2023/07/02 01:26:56;;;;;;;;;;;;;;;;;;5071076;28;20362;-68
2023/07/02 01:29:23;;;;;;;;;;;;;;;;;;5071528;28;19930;-68
2023/07/02 01:31:50;;;;;;;;;;;;;;;;;;5070912;28;19972;-68
2023/07/02 01:34:17;;;;;;;;;;;;;;;;;;5069418;28;19925;-69
2023/07/02 01:36:43;;;;;;;;;;;;;;;;;;5070340;28;20478;-68
2023/07/02 01:39:11;;;;;;;;;;;;;;;;;;5069698;28;20383;-68
2023/07/02 01:41:37;;;;;;;;;;;;;;;;;;5070707;28;19932;-68
2023/07/02 01:44:04;;;;;;;;;;;;;;;;;;5070446;28;19960;-68
2023/07/02 01:46:31;;;;;;;;;;;;;;;;;;5070182;28;19929;-67
2023/07/02 01:48:58;;;;;;;;;;;;;;;;;;5069150;28;20379;-67
2023/07/02 01:51:25;;;;;;;;;;;;;;;;;;5067283;28;19973;-68
2023/07/02 01:53:52;;;;;;;;;;;;;;;;;;5066374;28;19928;-68
2023/07/02 01:56:19;;;;;;;;;;;;;;;;;;5069581;28;20015;-68
2023/07/02 01:58:46;;;;;;;;;;;;;;;;;;5072993;28;20027;-68
2023/07/02 02:01:13;;;;;;;;;;;;;;;;;;5079376;28;19931;-69
2023/07/02 02:03:40;;;;;;;;;;;;;;;;;;5078915;28;19931;-68
2023/07/02 02:06:07;;;;;;;;;;;;;;;;;;5073084;28;19967;-68
2023/07/02 02:08:34;;;;;;;;;;;;;;;;;;5072081;28;19968;-68
2023/07/02 02:11:01;;;;;;;;;;;;;;;;;;5074430;28;20003;-68
2023/07/02 02:13:28;;;;;;;;;;;;;;;;;;5072492;28;20028;-68
2023/07/02 02:15:55;;;;;;;;;;;;;;;;;;5073268;28;20019;-68
2023/07/02 02:18:22;;;;;;;;;;;;;;;;;;5073507;28;19924;-68
2023/07/02 02:20:49;;;;;;;;;;;;;;;;;;5073406;28;19932;-68
2023/07/02 02:23:16;;;;;;;;;;;;;;;;;;5072642;28;19924;-68
2023/07/02 02:25:43;;;;;;;;;;;;;;;;;;5069460;28;20012;-68
2023/07/02 02:28:10;;;;;;;;;;;;;;;;;;5069249;28;19930;-68
2023/07/02 02:30:37;;;;;;;;;;;;;;;;;;5065746;28;20020;-69
2023/07/02 02:33:04;;;;;;;;;;;;;;;;;;5071404;28;20027;-68
2023/07/02 02:35:31;;;;;;;;;;;;;;;;;;5073916;28;19999;-68
2023/07/02 02:37:58;;;;;;;;;;;;;;;;;;5077750;28;20016;-69
2023/07/02 02:40:25;;;;;;;;;;;;;;;;;;5073601;28;19960;-68
2023/07/02 02:42:52;;;;;;;;;;;;;;;;;;5072324;28;20015;-69
2023/07/02 02:45:18;;;;;;;;;;;;;;;;;;5072191;28;20455;-68
2023/07/02 02:47:45;;;;;;;;;;;;;;;;;;5073743;28;20374;-68
2023/07/02 02:50:12;;;;;;;;;;;;;;;;;;5071239;28;19932;-67
2023/07/02 02:52:39;;;;;;;;;;;;;;;;;;5072459;28;19933;-68
2023/07/02 02:55:06;;;;;;;;;;;;;;;;;;5072708;28;20011;-68
2023/07/02 02:57:33;;;;;;;;;;;;;;;;;;5072682;28;19931;-68
2023/07/02 03:00:00;;;;;;;;;;;;;;;;;;5070726;28;19930;-69
2023/07/02 03:02:27;;;;;;;;;;;;;;;;;;5070758;28;19924;-68
2023/07/02 03:04:56;;;;;;;;;;;;;;;;;;5067584;28;20027;-68
2023/07/02 03:07:23;;;;;;;;;;;;;;;;;;5068140;28;19954;-68
2023/07/02 03:09:50;;;;;;;;;;;;;;;;;;5072690;28;20411;-68
2023/07/02 03:12:17;;;;;;;;;;;;;;;;;;5078394;28;20085;-68
2023/07/02 03:14:44;;;;;;;;;;;;;;;;;;5071232;28;19924;-68
2023/07/02 03:17:11;;;;;;;;;;;;;;;;;;5070913;28;20383;-68
2023/07/02 03:19:38;;;;;;;;;;;;;;;;;;5070207;28;20312;-68
2023/07/02 03:22:05;;;;;;;;;;;;;;;;;;5073134;28;20030;-68
2023/07/02 03:24:32;;;;;;;;;;;;;;;;;;5072823;28;20015;-68
2023/07/02 03:26:59;;;;;;;;;;;;;;;;;;5071791;28;19931;-68
2023/07/02 03:29:26;;;;;;;;;;;;;;;;;;5072818;28;19999;-68
2023/07/02 03:31:53;;;;;;;;;;;;;;;;;;5071030;28;19932;-68
2023/07/02 03:34:22;;;;;;;;;;;;;;;;;;5072981;28;20029;-68
2023/07/02 03:36:49;;;;;;;;;;;;;;;;;;5072257;28;20015;-68
2023/07/02 03:39:16;;;;;;;;;;;;;;;;;;5062794;28;19925;-68
2023/07/02 03:41:43;;;;;;;;;;;;;;;;;;5072977;28;19967;-68
2023/07/02 03:44:10;;;;;;;;;;;;;;;;;;5072144;28;20450;-68
2023/07/02 03:46:37;;;;;;;;;;;;;;;;;;5070189;28;19984;-68
2023/07/02 03:49:04;;;;;;;;;;;;;;;;;;5071450;28;20346;-68
2023/07/02 03:51:31;;;;;;;;;;;;;;;;;;5072920;28;20035;-68
2023/07/02 03:53:58;;;;;;;;;;;;;;;;;;5072764;28;19975;-68
2023/07/02 03:56:25;;;;;;;;;;;;;;;;;;5068423;28;20016;-68
2023/07/02 03:58:52;;;;;;;;;;;;;;;;;;5072412;28;19928;-68
2023/07/02 04:01:18;;;;;;;;;;;;;;;;;;5071478;28;20436;-68
2023/07/02 04:03:45;;;;;;;;;;;;;;;;;;5072926;28;20035;-68
2023/07/02 04:06:12;;;;;;;;;;;;;;;;;;5071376;28;20003;-68
2023/07/02 04:08:39;;;;;;;;;;;;;;;;;;5071509;28;19978;-68
2023/07/02 04:11:06;;;;;;;;;;;;;;;;;;5071232;28;19924;-68
2023/07/02 04:13:33;;;;;;;;;;;;;;;;;;5071226;28;20019;-68
2023/07/02 04:16:00;;;;;;;;;;;;;;;;;;5071422;28;20015;-68
2023/07/02 04:18:28;;;;;;;;;;;;;;;;;;5066443;28;20048;-68
2023/07/02 04:20:55;;;;;;;;;;;;;;;;;;5085905;28;19925;-68
2023/07/02 04:23:22;;;;;;;;;;;;;;;;;;5071067;28;19925;-68
2023/07/02 04:25:49;;;;;;;;;;;;;;;;;;5070459;28;20011;-68
2023/07/02 04:28:16;;;;;;;;;;;;;;;;;;5071980;28;20035;-68
2023/07/02 04:30:44;;;;;;;;;;;;;;;;;;5070614;28;20383;-69
2023/07/02 04:33:14;;;;;;;;;;;;;;;;;;5070141;28;19928;-68
2023/07/02 04:35:41;;;;;;;;;;;;;;;;;;5068241;28;19935;-68
2023/07/02 04:38:07;;;;;;;;;;;;;;;;;;5072053;28;20011;-68
2023/07/02 04:40:34;;;;;;;;;;;;;;;;;;5070337;28;19928;-68
2023/07/02 04:43:02;;;;;;;;;;;;;;;;;;5070445;28;19979;-68
2023/07/02 04:45:35;;;;;;;;;;;;;;;;;;5071884;28;20024;-68
2023/07/02 04:48:02;;;;;;;;;;;;;;;;;;5070250;28;20295;-68
2023/07/02 04:50:29;;;;;;;;;;;;;;;;;;5071240;28;20287;-68
2023/07/02 04:52:56;;;;;;;;;;;;;;;;;;5070921;28;19933;-68
2023/07/02 04:55:23;;;;;;;;;;;;;;;;;;5084299;28;19931;-68
2023/07/02 04:57:50;;;;;;;;;;;;;;;;;;5071738;28;20003;-69
2023/07/02 05:00:17;;;;;;;;;;;;;;;;;;5070827;28;20011;-69
2023/07/02 05:02:44;;;;;;;;;;;;;;;;;;5068648;28;20028;-68
2023/07/02 05:05:11;;;;;;;;;;;;;;;;;;5059932;28;20006;-68
2023/07/02 05:07:38;;;;;;;;;;;;;;;;;;5071566;28;20706;-68
2023/07/02 05:10:05;;;;;;;;;;;;;;;;;;5072331;28;19975;-68
2023/07/02 05:12:32;;;;;;;;;;;;;;;;;;5069774;28;20003;-68
2023/07/02 05:14:59;;;;;;;;;;;;;;;;;;5070354;28;19932;-68
2023/07/02 05:17:26;;;;;;;;;;;;;;;;;;5068530;28;19928;-68
2023/07/02 05:19:53;;;;;;;;;;;;;;;;;;5069197;28;19924;-68
2023/07/02 05:22:20;;;;;;;;;;;;;;;;;;5070688;28;20047;-68
2023/07/02 05:24:47;;;;;;;;;;;;;;;;;;5070833;28;20014;-68
2023/07/02 05:27:14;;;;;;;;;;;;;;;;;;5071407;28;19958;-68
2023/07/02 05:29:41;;;;;;;;;;;;;;;;;;5070218;28;20345;-68
2023/07/02 05:32:08;;;;;;;;;;;;;;;;;;5071298;28;20015;-68
2023/07/02 05:34:35;;;;;;;;;;;;;;;;;;5073407;28;20359;-68
2023/07/02 05:37:02;;;;;;;;;;;;;;;;;;5073195;28;19929;-67
2023/07/02 05:39:29;;;;;;;;;;;;;;;;;;5074366;28;19928;-67
2023/07/02 05:41:56;;;;;;;;;;;;;;;;;;5071879;28;19932;-66
2023/07/02 05:44:23;;;;;;;;;;;;;;;;;;5071025;28;20010;-67
2023/07/02 05:46:50;;;;;;;;;;;;;;;;;;5072339;28;20454;-67
2023/07/02 05:49:17;;;;;;;;;;;;;;;;;;5075238;28;19986;-67
2023/07/02 05:51:44;;;;;;;;;;;;;;;;;;5074839;28;20011;-67
2023/07/02 05:54:11;;;;;;;;;;;;;;;;;;5074086;28;19964;-67
2023/07/02 05:56:38;;;;;;;;;;;;;;;;;;5073842;28;19970;-67
2023/07/02 05:59:05;;;;;;;;;;;;;;;;;;5074361;28;19947;-67
2023/07/02 06:01:32;;;;;;;;;;;;;;;;;;5075088;28;20011;-68
2023/07/02 06:03:59;;;;;;;;;;;;;;;;;;5072411;28;19975;-68
2023/07/02 06:06:26;;;;;;;;;;;;;;;;;;5073873;28;19924;-68
2023/07/02 06:08:53;;;;;;;;;;;;;;;;;;5074659;28;19930;-68
2023/07/02 06:11:20;;;;;;;;;;;;;;;;;;5073508;28;19924;-68
2023/07/02 06:13:47;;;;;;;;;;;;;;;;;;5072535;28;19925;-68
2023/07/02 06:16:14;;;;;;;;;;;;;;;;;;5072129;28;20410;-68
2023/07/02 06:18:41;;;;;;;;;;;;;;;;;;5074010;28;20336;-68
2023/07/02 06:21:08;;;;;;;;;;;;;;;;;;5074208;28;20023;-68
2023/07/02 06:23:35;;;;;;;;;;;;;;;;;;5072255;28;19951;-68
2023/07/02 06:26:02;;;;;;;;;;;;;;;;;;5072037;28;19932;-69
2023/07/02 06:28:30;;;;;;;;;;;;;;;;;;5073205;28;20415;-68
2023/07/02 06:30:57;;;;;;;;;;;;;;;;;;5072639;28;19924;-68
2023/07/02 06:33:24;;;;;;;;;;;;;;;;;;5071153;28;19931;-69
2023/07/02 06:35:51;;;;;;;;;;;;;;;;;;5073736;28;20428;-68
2023/07/02 06:38:18;;;;;;;;;;;;;;;;;;5067410;28;19932;-68
2023/07/02 06:40:45;;;;;;;;;;;;;;;;;;5071126;28;20016;-68
2023/07/02 06:43:12;;;;;;;;;;;;;;;;;;5063473;28;20312;-68
2023/07/02 06:45:39;;;;;;;;;;;;;;;;;;5064682;28;19929;-68
2023/07/02 06:48:06;;;;;;;;;;;;;;;;;;5059630;28;19925;-67
2023/07/02 06:50:33;;;;;;;;;;;;;;;;;;5070159;28;19931;-68
2023/07/02 06:53:00;;;;;;;;;;;;;;;;;;5076548;28;19932;-68
2023/07/02 06:55:27;;;;;;;;;;;;;;;;;;5065761;28;20011;-68
2023/07/02 06:57:54;;;;;;;;;;;;;;;;;;5068832;28;20027;-68
2023/07/02 07:00:21;;;;;;;;;;;;;;;;;;5071609;28;20026;-68
2023/07/02 07:02:48;;;;;;;;;;;;;;;;;;5071054;28;20007;-71
2023/07/02 07:05:15;;;;;;;;;;;;;;;;;;5070429;28;20019;-69
2023/07/02 07:07:42;;;;;;;;;;;;;;;;;;5068093;28;20012;-68
2023/07/02 07:10:09;;;;;;;;;;;;;;;;;;5076630;28;20012;-69
2023/07/02 07:12:36;;;;;;;;;;;;;;;;;;5065329;28;19985;-68
2023/07/02 07:15:03;;;;;;;;;;;;;;;;;;5066159;28;19960;-68
2023/07/02 07:17:30;;;;;;;;;;;;;;;;;;5069971;28;19932;-69
2023/07/02 07:19:57;;;;;;;;;;;;;;;;;;5067137;28;19924;-68
2023/07/02 07:22:24;;;;;;;;;;;;;;;;;;5071511;28;20011;-67
2023/07/02 07:24:51;;;;;;;;;;;;;;;;;;5070751;28;19924;-68
2023/07/02 07:27:18;;;;;;;;;;;;;;;;;;5073073;28;19931;-68
2023/07/02 07:29:45;;;;;;;;;;;;;;;;;;5073622;28;19925;-68
2023/07/02 07:32:12;;;;;;;;;;;;;;;;;;5068747;28;20018;-68
2023/07/02 07:34:39;;;;;;;;;;;;;;;;;;5067806;28;20019;-69
2023/07/02 07:37:06;;;;;;;;;;;;;;;;;;5073605;28;20011;-67
2023/07/02 07:39:33;;;;;;;;;;;;;;;;;;5072925;28;20408;-69
2023/07/02 07:42:00;;;;;;;;;;;;;;;;;;5073662;28;20452;-69
2023/07/02 07:44:28;;;;;;;;;;;;;;;;;;5068612;28;19932;-69
2023/07/02 07:46:56;;;;;;;;;;;;;;;;;;5060916;28;20040;-68
2023/07/02 07:49:23;;;;;;;;;;;;;;;;;;5064270;28;19931;-68
2023/07/02 07:51:50;;;;;;;;;;;;;;;;;;5087364;28;19993;-69
2023/07/02 07:54:17;;;;;;;;;;;;;;;;;;5064507;28;20015;-68
2023/07/02 07:56:44;;;;;;;;;;;;;;;;;;5054146;28;20380;-69
2023/07/02 07:59:13;;;;;;;;;;;;;;;;;;5070162;28;20062;-69
2023/07/02 08:01:40;;;;;;;;;;;;;;;;;;5071955;28;19924;-67
2023/07/02 08:04:07;;;;;;;;;;;;;;;;;;5071567;28;19971;-67
2023/07/02 08:06:34;;;;;;;;;;;;;;;;;;5061134;28;19924;-67
2023/07/02 08:09:01;;;;;;;;;;;;;;;;;;5065594;28;20382;-67
2023/07/02 08:11:28;;;;;;;;;;;;;;;;;;5067381;28;20010;-68
2023/07/02 08:13:55;;;;;;;;;;;;;;;;;;5071120;28;20352;-68
2023/07/02 08:16:22;;;;;;;;;;;;;;;;;;5071248;28;20439;-68
2023/07/02 08:18:49;;;;;;;;;;;;;;;;;;5063059;28;20382;-68
2023/07/02 08:21:16;;;;;;;;;;;;;;;;;;5070859;28;20409;-68
2023/07/02 08:23:44;;;;;;;;;;;;;;;;;;5069824;28;20510;-68
2023/07/02 08:26:11;;;;;;;;;;;;;;;;;;5061465;28;20023;-68
2023/07/02 08:28:38;;;;;;;;;;;;;;;;;;5066807;28;19928;-68
2023/07/02 08:31:05;;;;;;;;;;;;;;;;;;5051021;28;20405;-68
2023/07/02 08:33:32;;;;;;;;;;;;;;;;;;5066515;28;21754;-69
2023/07/02 08:36:00;;;;;;;;;;;;;;;;;;5067995;28;19998;-68
2023/07/02 08:38:27;;;;;;;;;;;;;;;;;;5069418;28;19971;-69
2023/07/02 08:40:54;;;;;;;;;;;;;;;;;;5056240;28;20016;-68
2023/07/02 08:43:21;;;;;;;;;;;;;;;;;;5063708;28;19924;-69
2023/07/02 08:45:48;;;;;;;;;;;;;;;;;;5065167;28;19931;-69
2023/07/02 08:48:15;;;;;;;;;;;;;;;;;;5070987;28;20467;-69
2023/07/02 08:50:42;;;;;;;;;;;;;;;;;;5056318;28;19924;-69
2023/07/02 08:53:09;;;;;;;;;;;;;;;;;;5068651;28;19978;-70
2023/07/02 08:55:36;;;;;;;;;;;;;;;;;;5067689;28;19939;-69
2023/07/02 08:58:03;;;;;;;;;;;;;;;;;;5068800;28;19978;-68
2023/07/02 09:00:31;;;;;;;;;;;;;;;;;;5067774;28;20335;-69
2023/07/02 09:02:58;;;;;;;;;;;;;;;;;;5062963;28;19930;-71
2023/07/02 09:05:24;;;;;;;;;;;;;;;;;;5065151;28;20009;-70
2023/07/02 09:07:52;;;;;;;;;;;;;;;;;;5066723;28;20011;-70
2023/07/02 09:10:19;;;;;;;;;;;;;;;;;;5068034;28;19925;-70
2023/07/02 09:12:47;;;;;;;;;;;;;;;;;;5075660;28;19928;-69
2023/07/02 09:15:14;;;;;;;;;;;;;;;;;;5073207;28;19962;-69
2023/07/02 09:17:41;;;;;;;;;;;;;;;;;;5059580;28;20035;-68
2023/07/02 09:20:08;;;;;;;;;;;;;;;;;;5070057;28;19924;-69
2023/07/02 09:22:35;;;;;;;;;;;;;;;;;;5072206;28;19978;-69
2023/07/02 09:25:02;;;;;;;;;;;;;;;;;;5067602;28;19924;-68
2023/07/02 09:27:29;;;;;;;;;;;;;;;;;;5062153;28;19924;-69
2023/07/02 09:29:56;;;;;;;;;;;;;;;;;;5067970;28;19994;-69
2023/07/02 09:32:23;;;;;;;;;;;;;;;;;;5068839;28;19964;-70
2023/07/02 09:34:50;;;;;;;;;;;;;;;;;;5067368;28;19931;-69
2023/07/02 09:37:17;;;;;;;;;;;;;;;;;;5060791;28;20011;-68
2023/07/02 09:39:44;;;;;;;;;;;;;;;;;;5069256;28;19928;-69
2023/07/02 09:42:11;;;;;;;;;;;;;;;;;;5068839;28;20015;-68
2023/07/02 09:44:38;;;;;;;;;;;;;;;;;;5059603;28;19960;-69
2023/07/02 09:47:05;;;;;;;;;;;;;;;;;;5067004;28;19956;-69
2023/07/02 09:49:32;;;;;;;;;;;;;;;;;;5060485;28;19924;-69
2023/07/02 09:51:59;;;;;;;;;;;;;;;;;;5066837;28;20340;-69
2023/07/02 09:54:26;;;;;;;;;;;;;;;;;;5070253;28;19925;-69
2023/07/02 09:56:53;;;;;;;;;;;;;;;;;;5060146;28;20011;-69
2023/07/02 09:59:20;;;;;;;;;;;;;;;;;;5061139;28;19932;-69
2023/07/02 10:01:47;;;;;;;;;;;;;;;;;;5063767;28;20004;-70
2023/07/02 10:04:14;;;;;;;;;;;;;;;;;;5063307;28;19925;-70
2023/07/02 10:06:41;;;;;;;;;;;;;;;;;;5056133;28;20497;-68
2023/07/02 10:09:08;;;;;;;;;;;;;;;;;;5065064;28;20349;-69
2023/07/02 10:11:35;;;;;;;;;;;;;;;;;;5056093;28;19971;-69
2023/07/02 10:14:02;;;;;;;;;;;;;;;;;;5071150;28;19932;-69
2023/07/02 10:16:31;;;;;;;;;;;;;;;;;;5065992;28;19963;-68
2023/07/02 10:18:58;;;;;;;;;;;;;;;;;;5059504;28;19931;-69
2023/07/02 10:21:26;;;;;;;;;;;;;;;;;;5067956;28;20403;-69
2023/07/02 10:23:52;;;;;;;;;;;;;;;;;;5073665;28;19994;-70
2023/07/02 10:26:19;;;;;;;;;;;;;;;;;;5070565;28;20003;-68
2023/07/02 10:28:46;;;;;;;;;;;;;;;;;;5064839;28;20294;-68
2023/07/02 10:31:13;;;;;;;;;;;;;;;;;;5060072;28;19924;-68
2023/07/02 10:33:40;;;;;;;;;;;;;;;;;;5062324;28;20019;-69
2023/07/02 10:36:07;;;;;;;;;;;;;;;;;;5065647;28;20033;-69
2023/07/02 10:38:34;;;;;;;;;;;;;;;;;;5067009;28;19962;-68
2023/07/02 10:41:02;;;;;;;;;;;;;;;;;;5061173;28;19924;-69
2023/07/02 10:43:28;;;;;;;;;;;;;;;;;;5058435;28;19924;-69
2023/07/02 10:45:55;;;;;;;;;;;;;;;;;;5070167;28;20019;-69
2023/07/02 10:48:22;;;;;;;;;;;;;;;;;;5071399;28;19929;-70
2023/07/02 10:50:50;;;;;;;;;;;;;;;;;;5069522;28;20326;-70
2023/07/02 10:53:17;;;;;;;;;;;;;;;;;;5070825;28;19931;-69
2023/07/02 10:55:44;;;;;;;;;;;;;;;;;;5065147;28;19933;-70
2023/07/02 10:58:11;;;;;;;;;;;;;;;;;;5068191;28;19932;-69
2023/07/02 11:00:38;;;;;;;;;;;;;;;;;;5073406;28;20007;-69
2023/07/02 11:03:05;;;;;;;;;;;;;;;;;;5065661;28;20483;-70
2023/07/02 11:05:32;;;;;;;;;;;;;;;;;;5087863;22;19946;-69
2023/07/02 11:07:59;;;;;;;;;;;;;;;;;;5087930;22;20023;-71
2023/07/02 11:10:26;;;;;;;;;;;;;;;;;;5067709;28;19971;-69
2023/07/02 11:12:53;;;;;;;;;;;;;;;;;;5069557;28;20027;-69
2023/07/02 11:15:20;;;;;;;;;;;;;;;;;;5070929;28;19924;-69
2023/07/02 11:17:47;;;;;;;;;;;;;;;;;;5074073;22;20015;-69
2023/07/02 11:20:14;;;;;;;;;;;;;;;;;;5070019;28;19959;-69
2023/07/02 11:22:42;;;;;;;;;;;;;;;;;;5069587;28;19924;-69
2023/07/02 11:25:09;;;;;;;;;;;;;;;;;;5066079;28;19933;-69
2023/07/02 11:27:35;;;;;;;;;;;;;;;;;;5068583;28;20011;-69
2023/07/02 11:30:03;;;;;;;;;;;;;;;;;;5061655;28;20284;-69
2023/07/02 11:32:30;;;;;;;;;;;;;;;;;;5064188;28;20299;-69
2023/07/02 11:34:57;;;;;;;;;;;;;;;;;;5071168;28;20131;-69
2023/07/02 11:37:24;;;;;;;;;;;;;;;;;;5069807;28;19955;-70
2023/07/02 11:39:51;;;;;;;;;;;;;;;;;;5067920;28;19924;-69
2023/07/02 11:42:18;;;;;;;;;;;;;;;;;;5066633;28;20384;-69
2023/07/02 11:44:45;;;;;;;;;;;;;;;;;;5064902;28;20049;-69
2023/07/02 11:47:12;;;;;;;;;;;;;;;;;;5069079;28;19929;-69
2023/07/02 11:49:39;;;;;;;;;;;;;;;;;;5070903;28;20025;-70
2023/07/02 11:52:08;;;;;;;;;;;;;;;;;;5061229;28;19932;-69
2023/07/02 11:54:35;;;;;;;;;;;;;;;;;;5070796;28;20418;-69
2023/07/02 11:57:02;;;;;;;;;;;;;;;;;;5063861;28;19932;-69
2023/07/02 11:59:29;;;;;;;;;;;;;;;;;;5069855;28;20448;-70
2023/07/02 12:01:56;;;;;;;;;;;;;;;;;;5071353;28;19963;-68
2023/07/02 12:04:23;;;;;;;;;;;;;;;;;;5072145;28;20035;-69
2023/07/02 12:06:50;;;;;;;;;;;;;;;;;;5069305;28;19924;-68
2023/07/02 12:09:17;;;;;;;;;;;;;;;;;;5068737;28;19924;-68
2023/07/02 12:11:45;;;;;;;;;;;;;;;;;;5061845;28;19924;-68
2023/07/02 12:14:12;;;;;;;;;;;;;;;;;;5066452;28;19935;-70
2023/07/02 12:16:39;;;;;;;;;;;;;;;;;;5059777;28;20015;-68
2023/07/02 12:19:06;;;;;;;;;;;;;;;;;;5067916;28;20018;-68
2023/07/02 12:21:33;;;;;;;;;;;;;;;;;;5065848;28;19933;-68
2023/07/02 12:24:00;;;;;;;;;;;;;;;;;;5070149;28;20027;-68
2023/07/02 12:26:28;;;;;;;;;;;;;;;;;;5070932;28;19925;-67
2023/07/02 12:28:55;;;;;;;;;;;;;;;;;;5072127;28;19928;-69
2023/07/02 12:31:22;;;;;;;;;;;;;;;;;;5072163;28;20019;-69
2023/07/02 12:33:49;;;;;;;;;;;;;;;;;;5073043;28;19990;-68
2023/07/02 12:36:16;;;;;;;;;;;;;;;;;;5067275;28;20039;-69
2023/07/02 12:38:43;;;;;;;;;;;;;;;;;;5070337;28;20015;-68
2023/07/02 12:41:10;;;;;;;;;;;;;;;;;;5068753;28;19971;-69
2023/07/02 12:43:37;;;;;;;;;;;;;;;;;;5072104;28;20015;-68
2023/07/02 12:46:04;;;;;;;;;;;;;;;;;;5066677;28;19994;-69
2023/07/02 12:48:31;;;;;;;;;;;;;;;;;;5065593;28;19939;-68
2023/07/02 12:50:58;;;;;;;;;;;;;;;;;;5077412;28;20011;-70
2023/07/02 12:53:25;;;;;;;;;;;;;;;;;;5065278;28;19931;-69
2023/07/02 12:55:52;;;;;;;;;;;;;;;;;;5065834;28;20023;-69
2023/07/02 12:58:19;;;;;;;;;;;;;;;;;;5071274;28;19978;-68
2023/07/02 13:00:46;;;;;;;;;;;;;;;;;;5053274;28;20008;-69
2023/07/02 13:03:13;;;;;;;;;;;;;;;;;;5064323;28;19931;-69
2023/07/02 13:05:40;;;;;;;;;;;;;;;;;;5065167;28;20007;-69
2023/07/02 13:08:07;;;;;;;;;;;;;;;;;;5066877;28;19932;-70
2023/07/02 13:10:34;;;;;;;;;;;;;;;;;;5066277;28;19930;-69
2023/07/02 13:13:01;;;;;;;;;;;;;;;;;;5070682;28;19963;-72
2023/07/02 13:15:28;;;;;;;;;;;;;;;;;;5065503;28;20015;-73
2023/07/02 13:17:55;;;;;;;;;;;;;;;;;;5071191;28;19935;-73
2023/07/02 13:20:22;;;;;;;;;;;;;;;;;;5070515;28;19999;-73
2023/07/02 13:22:49;;;;;;;;;;;;;;;;;;5070937;28;20027;-73
2023/07/02 13:25:16;;;;;;;;;;;;;;;;;;5067112;28;19928;-74
2023/07/02 13:27:43;;;;;;;;;;;;;;;;;;5069806;28;20024;-73
2023/07/02 13:30:10;;;;;;;;;;;;;;;;;;5070646;28;19986;-73
2023/07/02 13:32:37;;;;;;;;;;;;;;;;;;5061641;28;19924;-73
2023/07/02 13:35:04;;;;;;;;;;;;;;;;;;5069889;28;19931;-72
2023/07/02 13:37:31;;;;;;;;;;;;;;;;;;5070488;28;20371;-74
2023/07/02 13:39:58;;;;;;;;;;;;;;;;;;5067130;28;20362;-73
2023/07/02 13:42:25;;;;;;;;;;;;;;;;;;5069408;28;20361;-73
2023/07/02 13:44:52;;;;;;;;;;;;;;;;;;5069038;28;20043;-71
2023/07/02 13:47:19;;;;;;;;;;;;;;;;;;5054588;28;19972;-72
2023/07/02 13:49:46;;;;;;;;;;;;;;;;;;5055977;28;19932;-72
2023/07/02 13:52:13;;;;;;;;;;;;;;;;;;5057934;28;20015;-70
2023/07/02 13:54:40;;;;;;;;;;;;;;;;;;5074330;28;19924;-71
2023/07/02 13:57:07;;;;;;;;;;;;;;;;;;5068811;28;20393;-71
2023/07/02 13:59:34;;;;;;;;;;;;;;;;;;5063835;28;20007;-70
2023/07/02 14:02:01;;;;;;;;;;;;;;;;;;5074811;28;19946;-71
2023/07/02 14:04:28;;;;;;;;;;;;;;;;;;5058312;28;20012;-71
2023/07/02 14:06:55;;;;;;;;;;;;;;;;;;5071882;28;20442;-71
2023/07/02 14:09:22;;;;;;;;;;;;;;;;;;5071872;28;19971;-70
2023/07/02 14:11:49;;;;;;;;;;;;;;;;;;5074458;28;19985;-70
2023/07/02 14:14:16;;;;;;;;;;;;;;;;;;5072798;28;20019;-71
2023/07/02 14:16:42;;;;;;;;;;;;;;;;;;5074560;28;19935;-71
2023/07/02 14:19:09;;;;;;;;;;;;;;;;;;5075057;28;20016;-70
2023/07/02 14:21:36;;;;;;;;;;;;;;;;;;5073750;28;19930;-72
2023/07/02 14:24:04;;;;;;;;;;;;;;;;;;5074499;28;19924;-71
2023/07/02 14:26:31;;;;;;;;;;;;;;;;;;5074507;28;19925;-71
2023/07/02 14:28:58;;;;;;;;;;;;;;;;;;5071829;28;19924;-71
2023/07/02 14:31:25;;;;;;;;;;;;;;;;;;5078500;28;19957;-71
2023/07/02 14:33:52;;;;;;;;;;;;;;;;;;5078487;28;20012;-71
2023/07/02 14:36:19;;;;;;;;;;;;;;;;;;5073778;28;19999;-71
2023/07/02 14:38:46;;;;;;;;;;;;;;;;;;5074410;28;19968;-71
2023/07/02 14:41:13;;;;;;;;;;;;;;;;;;5072785;28;20019;-71
2023/07/02 14:43:40;;;;;;;;;;;;;;;;;;5069258;28;20277;-71
2023/07/02 14:46:07;;;;;;;;;;;;;;;;;;5069632;28;19975;-72
2023/07/02 14:48:34;;;;;;;;;;;;;;;;;;5062011;28;19956;-71
2023/07/02 14:51:02;;;;;;;;;;;;;;;;;;5073196;28;19924;-71
2023/07/02 14:53:29;;;;;;;;;;;;;;;;;;5073817;28;19925;-71
2023/07/02 14:55:56;;;;;;;;;;;;;;;;;;5074296;28;19947;-71
2023/07/02 14:58:23;;;;;;;;;;;;;;;;;;5074056;28;20303;-71
2023/07/02 15:00:50;;;;;;;;;;;;;;;;;;5069657;28;19946;-71
2023/07/02 15:03:17;;;;;;;;;;;;;;;;;;5067647;28;19974;-71
2023/07/02 15:05:44;;;;;;;;;;;;;;;;;;5071042;28;20001;-71
2023/07/02 15:08:12;;;;;;;;;;;;;;;;;;5068663;28;19924;-71
2023/07/02 15:10:39;;;;;;;;;;;;;;;;;;5069807;28;20362;-71
2023/07/02 15:13:06;;;;;;;;;;;;;;;;;;5071855;28;19932;-71
2023/07/02 15:15:33;;;;;;;;;;;;;;;;;;5073975;28;19963;-71
2023/07/02 15:18:00;;;;;;;;;;;;;;;;;;5073268;28;19928;-71
2023/07/02 15:20:27;;;;;;;;;;;;;;;;;;5072785;28;20340;-70
2023/07/02 15:22:54;;;;;;;;;;;;;;;;;;5068975;28;19989;-70
2023/07/02 15:25:21;;;;;;;;;;;;;;;;;;5069565;28;19971;-70
2023/07/02 15:27:48;;;;;;;;;;;;;;;;;;5069468;28;20022;-70
2023/07/02 15:30:15;;;;;;;;;;;;;;;;;;5084218;28;20396;-71
2023/07/02 15:32:42;;;;;;;;;;;;;;;;;;5090384;28;19952;-72
2023/07/02 15:35:09;;;;;;;;;;;;;;;;;;5077514;28;19951;-72
2023/07/02 15:37:36;;;;;;;;;;;;;;;;;;5066337;28;19932;-71
2023/07/02 15:40:03;;;;;;;;;;;;;;;;;;5062467;28;19929;-69
2023/07/02 15:42:31;;;;;;;;;;;;;;;;;;5053744;28;19932;-69
2023/07/02 15:44:58;;;;;;;;;;;;;;;;;;5071921;28;20395;-68
2023/07/02 15:47:25;;;;;;;;;;;;;;;;;;5069851;28;20019;-68
2023/07/02 15:49:52;;;;;;;;;;;;;;;;;;5067032;28;19930;-69
2023/07/02 15:52:19;;;;;;;;;;;;;;;;;;5069295;28;20015;-69
2023/07/02 15:54:46;;;;;;;;;;;;;;;;;;5061633;28;20019;-68
2023/07/02 15:57:13;;;;;;;;;;;;;;;;;;5064823;28;19925;-69
2023/07/02 15:59:40;;;;;;;;;;;;;;;;;;5070021;28;19924;-69
2023/07/02 16:02:08;;;;;;;;;;;;;;;;;;5065595;28;19986;-69
2023/07/02 16:04:35;;;;;;;;;;;;;;;;;;5071127;28;20449;-69
2023/07/02 16:07:02;;;;;;;;;;;;;;;;;;5060386;28;19932;-69
2023/07/02 16:09:29;;;;;;;;;;;;;;;;;;5065003;28;19924;-69
2023/07/02 16:14:24;;;;;;;;;;;;;;;;;;5051298;22;19925;-68
2023/07/02 16:16:53;;;;;;;;;;;;;;;;;;5046254;28;20407;-69
2023/07/02 16:19:20;;;;;;;;;;;;;;;;;;5045916;22;19933;-68
2023/07/02 16:21:48;;;;;;;;;;;;;;;;;;5020273;28;20043;-68
2023/07/02 16:24:15;;;;;;;;;;;;;;;;;;5031471;28;19932;-70
2023/07/02 16:26:41;;;;;;;;;;;;;;;;;;5024418;28;19925;-67
2023/07/02 16:29:08;;;;;;;;;;;;;;;;;;5018816;28;20020;-69
2023/07/02 16:31:36;;;;;;;;;;;;;;;;;;5026200;28;20020;-69
2023/07/02 16:34:03;;;;;;;;;;;;;;;;;;5024159;28;19932;-68
2023/07/02 16:36:30;;;;;;;;;;;;;;;;;;5025919;28;20394;-68
2023/07/02 16:38:57;;;;;;;;;;;;;;;;;;5021116;28;19925;-68
2023/07/02 16:41:25;;;;;;;;;;;;;;;;;;5019453;28;19991;-69
2023/07/02 16:43:52;;;;;;;;;;;;;;;;;;5025532;28;19976;-69
2023/07/02 16:46:19;;;;;;;;;;;;;;;;;;5028006;28;19940;-69